Ir ao conteúdo
  • Cadastre-se
Entre para seguir isso  
joaobez

Problemas de desempenho com gigabyte geforce gtx950 2gb oc

Recommended Posts

Bom, há algumas semanas resolvi fazer um upgrade na minha placa, escolhi uma Gigabyte Geforce GTX950 2GB OC, pois era a melhor opção custo benefício no momento. Porém, de alguns dias pra cá, a placa vem apresentando um problema bem irritante. Costumo jogar o jogo Counter-Strike: Global Offensive, e só percebi esse problema neste jogo especificamente. Com a nova placa, sempre tive um FPS constante, na faixa de 250~300, porém de uns dias pra cá, a placa apresentou o seguinte problema: A cada 2~3 minutos, o FPS cai repentinamente para 30~50 durante alguns segundos, e retorna para 250~300 em seguida, o que não acontecia com minha placa anterior (Gigabyte GTX 550 TI), que mantinha estáveis 120-150 FPS. Este problema é muito desagradável mesmo, pois atualizei a placa no intuito de buscar um FPS constante na jogatina. Por isso antes de acionar a garantia, vim aqui pedir uma "luz" para ver se alguem me indica uma possível solução. Segue abaixo as specs da máquina.

 

Specs:

Fonte: DEX ATX 520W

Placa-mãe: ASUS M5A78L-M LX/BR

Processador: AMD FX-8320e

VGA: Gigabyte Geforce GTX950 2GB OC

RAM: 2x HyperX FURY 4GB 1600MHz DDR3

HD: SAMSUNG HD502HI

 

Procedimentos Tomados:

  1. Reinstalação do jogo, verificação dos arquivos, etc;
  2. Teste com diferentes resoluções, e opções de vídeo, dentro do jogo;
  3. Atualização dos drivers da NVIDIA;
  4. Atualização dos drivers da Realtek;
  5. Limpeza Interna da máquina, e todos os componentes;
  6. Scan do antívirus;
  7. Teste com a placa antiga (550 TI), obtive um resultado estável, sem quedas de FPS;

 

LOGS:

Log de uso da VGA durante o jogo:

Spoiler

Date Time        GPU Clock(MHz)    Memory Clock(MHz)    GPU Voltage(V)    Power(%)    GPU Temperature('C)    FAN Speed(RPM)    

07-14-2016 14:01:29    1291        6610            1.112        61            35            1252    
07-14-2016 14:01:32    1291        6610            1.112        59            37            1250    
07-14-2016 14:01:35    1291        6610            1.112        63            38            1248    
07-14-2016 14:01:38    1291        6610            1.112        62            39            1247    
07-14-2016 14:01:41    1291        6610            1.112        47            38            1254    
07-14-2016 14:01:44    1291        6610            1.112        45            38            1256    
07-14-2016 14:01:47    1291        6610            1.112        45            38            1258    
07-14-2016 14:01:50    1088        6610            0.962        38            37            1257    
07-14-2016 14:01:53    1088        6610            0.962        39            37            1257    
07-14-2016 14:01:56    1164        6610            1.000        41            38            1255    
07-14-2016 14:02:00    1164        6610            1.000        41            38            1257    
07-14-2016 14:02:03    1291        6610            1.112        52            39            1253    
07-14-2016 14:02:06    1291        6610            1.112        57            41            1252    
07-14-2016 14:02:09    1291        6610            1.112        57            41            1249    
07-14-2016 14:02:12    1291        6610            1.112        57            42            1250    
07-14-2016 14:02:15    1291        6610            1.112        56            42            1250    
07-14-2016 14:02:18    1291        6610            1.112        56            42            1251    
07-14-2016 14:02:21    1291        6610            1.112        53            42            1251    
07-14-2016 14:02:24    1291        6610            1.112        52            43            1251    
07-14-2016 14:02:27    1291        6610            1.112        50            43            1252    
07-14-2016 14:02:30    1291        6610            1.112        49            43            1252    
07-14-2016 14:02:33    1291        6610            1.112        49            43            1253    
07-14-2016 14:02:36    1291        6610            1.112        49            43            1255    
07-14-2016 14:02:39    1291        6610            1.112        49            43            1252    
07-14-2016 14:02:42    1291        6610            1.112        52            44            1254    
07-14-2016 14:02:45    1291        6610            1.112        48            43            1250    
07-14-2016 14:02:48    1291        6610            1.112        50            44            1252    
07-14-2016 14:02:51    1291        6610            1.112        49            44            1254    
07-14-2016 14:02:54    1291        6610            1.112        51            44            1252    
07-14-2016 14:02:57    1291        6610            1.112        50            44            1251    
07-14-2016 14:03:00    1291        6610            1.112        49            44            1253    
07-14-2016 14:03:03    1291        6610            1.112        48            44            1253    
07-14-2016 14:03:06    1291        6610            1.112        50            45            1254    
07-14-2016 14:03:09    1291        6610            1.112        51            45            1253    
07-14-2016 14:03:12    1291        6610            1.112        51            45            1253    
07-14-2016 14:03:15    1291        6610            1.112        51            45            1248    
07-14-2016 14:03:18    1291        6610            1.112        56            46            1250    
07-14-2016 14:03:21    1291        6610            1.112        57            47            1250    
07-14-2016 14:03:24    1291        6610            1.112        57            47            1249    
07-14-2016 14:03:27    1291        6610            1.112        56            47            1251    
07-14-2016 14:03:30    1291        6610            1.112        54            47            1253    
07-14-2016 14:03:33    1291        6610            1.112        53            47            1250    
07-14-2016 14:03:36    1291        6610            1.112        55            47            1252    
07-14-2016 14:03:39    1291        6610            1.112        54            47            1251    
07-14-2016 14:03:42    1291        6610            1.112        51            47            1250    
07-14-2016 14:03:45    1291        6610            1.112        50            47            1251    
07-14-2016 14:03:48    1291        6610            1.112        54            47            1250    
07-14-2016 14:03:51    1291        6610            1.112        56            48            1250    
07-14-2016 14:03:54    1291        6610            1.112        56            48            1248    
07-14-2016 14:03:57    1291        6610            1.112        52            48            1252    
07-14-2016 14:04:00    1291        6610            1.112        54            48            1251    
07-14-2016 14:04:03    1291        6610            1.112        46            47            1253    
07-14-2016 14:04:06    1139        6610            0.993        39            46            1255    
07-14-2016 14:04:09    1139        6610            0.993        38            46            1255    
07-14-2016 14:04:12    1063        6610            0.956        36            45            1256    
07-14-2016 14:04:15    961        6610            0.956        37            45            1256    
07-14-2016 14:04:18    1101        6610            0.968        41            45            1254    
07-14-2016 14:04:21    1101        6610            0.968        39            45            1254    
07-14-2016 14:04:24    1101        6610            0.968        39            45            1255    
07-14-2016 14:04:27    1101        6610            0.968        42            45            1257    
07-14-2016 14:04:30    1291        6610            1.112        46            45            1255    
07-14-2016 14:04:33    1291        6610            1.112        49            46            1253    
07-14-2016 14:04:36    1291        6610            1.112        55            47            1251    
07-14-2016 14:04:39    1291        6610            1.112        56            47            1249    
07-14-2016 14:04:42    1291        6610            1.112        55            47            1249    
07-14-2016 14:04:45    1291        6610            1.112        51            47            1253    
07-14-2016 14:04:48    1291        6610            1.112        53            47            1252    
07-14-2016 14:04:51    1291        6610            1.112        57            48            1250    
07-14-2016 14:04:54    1291        6610            1.112        56            48            1248    
07-14-2016 14:04:57    1291        6610            1.112        56            48            1251    
07-14-2016 14:05:00    1291        6610            1.112        56            48            1252    
07-14-2016 14:05:03    1291        6610            1.112        60            48            1251    
07-14-2016 14:05:06    1291        6610            1.112        49            48            1252    
07-14-2016 14:05:09    1291        6610            1.112        57            49            1250    
07-14-2016 14:05:12    1291        6610            1.112        58            49            1247    
07-14-2016 14:05:15    1291        6610            1.112        54            49            1251    
07-14-2016 14:05:18    1291        6610            1.112        52            48            1252    
07-14-2016 14:05:21    1291        6610            1.112        53            48            1252    
07-14-2016 14:05:24    1291        6610            1.112        54            49            1251    
07-14-2016 14:05:27    1291        6610            1.112        53            49            1251    
07-14-2016 14:05:30    1291        6610            1.112        55            49            1250    
07-14-2016 14:05:33    1291        6610            1.112        57            49            1250    
07-14-2016 14:05:36    1291        6610            1.112        57            50            1247    
07-14-2016 14:05:39    1291        6610            1.112        58            50            1250    
07-14-2016 14:05:42    1291        6610            1.112        61            50            1250    
07-14-2016 14:05:45    1291        6610            1.112        60            50            1248    
07-14-2016 14:05:48    1291        6610            1.112        40            48            1268    
07-14-2016 14:05:51    861        6610            0.956        32            47            1266    
07-14-2016 14:05:54    861        6610            0.956        35            46            1265    
07-14-2016 14:05:57    861        6610            0.956        33            46            1268    
07-14-2016 14:06:00    1291        6610            1.112        60            49            1248    
07-14-2016 14:06:03    1291        6610            1.112        59            49            1248    
07-14-2016 14:06:06    1291        6610            1.112        60            50            1249    
07-14-2016 14:06:09    1291        6610            1.112        61            50            1248    
07-14-2016 14:06:12    1291        6610            1.112        59            50            1247    
07-14-2016 14:06:15    1291        6610            1.112        53            50            1250    
07-14-2016 14:06:18    1291        6610            1.112        53            49            1252    
07-14-2016 14:06:21    1291        6610            1.112        53            49            1251    
07-14-2016 14:06:24    1291        6610            1.112        52            49            1252    
07-14-2016 14:06:27    1291        6610            1.112        51            49            1254    
07-14-2016 14:06:30    1291        6610            1.112        52            49            1250    
07-14-2016 14:06:33    1291        6610            1.112        52            49            1253    
07-14-2016 14:06:37    1291        6610            1.112        51            49            1252    
07-14-2016 14:06:40    1291        6610            1.112        51            49            1252    
07-14-2016 14:06:43    1291        6610            1.112        60            50            1249    
07-14-2016 14:06:46    1291        6610            1.112        49            49            1250    
07-14-2016 14:06:49    1291        6610            1.112        60            50            1250    
07-14-2016 14:06:52    1291        6610            1.112        54            50            1248    
07-14-2016 14:06:55    1291        6610            1.112        55            50            1249    
07-14-2016 14:06:58    1291        6610            1.112        55            50            1248    
07-14-2016 14:07:01    1291        6610            1.112        48            49            1252    
07-14-2016 14:07:04    1291        6610            1.112        51            49            1250    
07-14-2016 14:07:07    1291        6610            1.112        54            50            1249    
07-14-2016 14:07:10    1291        6610            1.112        58            50            1250    
07-14-2016 14:07:13    1291        6610            1.112        49            49            1252    
07-14-2016 14:07:16    1291        6610            1.112        49            49            1253    
07-14-2016 14:07:19    1291        6610            1.112        46            49            1257    
07-14-2016 14:07:22    1139        6610            0.993        41            48            1257    
07-14-2016 14:07:25    1177        6610            1.012        39            48            1255    
07-14-2016 14:07:28    1291        6610            1.112        56            50            1252    
07-14-2016 14:07:31    1291        6610            1.112        52            49            1252    
07-14-2016 14:07:34    1291        6610            1.112        50            49            1255    
07-14-2016 14:07:37    1291        6610            1.112        50            49            1251    
07-14-2016 14:07:40    1291        6610            1.112        53            49            1250    
07-14-2016 14:07:43    1291        6610            1.112        44            48            1253    
07-14-2016 14:07:46    1291        6610            1.112        47            48            1254    
07-14-2016 14:07:49    1291        6610            1.112        53            49            1249    
07-14-2016 14:07:52    1291        6610            1.112        51            49            1254    
07-14-2016 14:07:55    1291        6610            1.112        39            48            1263    
07-14-2016 14:07:58    1291        6610            1.112        39            47            1267    
07-14-2016 14:08:01    1291        6610            1.112        41            47            1267    
07-14-2016 14:08:04    1291        6610            1.112        42            47            1267    
07-14-2016 14:08:07    1291        6610            1.112        52            47            1257    
07-14-2016 14:08:10    1291        6610            1.112        53            48            1254    
07-14-2016 14:08:13    1291        6610            1.112        35            46            1261    
07-14-2016 14:08:16    135        810            0.800        10            44            1272    
07-14-2016 14:08:19    135        810            0.800        11            43            1274    
07-14-2016 14:08:22    135        810            0.806        11            42            1271    
07-14-2016 14:08:25    135        810            0.806        11            41            1274    
07-14-2016 14:08:28    135        810            0.806        11            41            1275    
07-14-2016 14:08:31    135        810            0.806        11            41            1275    
07-14-2016 14:08:34    135        810            0.806        11            40            1274    
07-14-2016 14:08:37    135        810            0.806        11            39            1273    
07-14-2016 14:08:40    1063        6610            0.962        27            40            1263    
07-14-2016 14:08:43    135        810            0.806        10            39            1270    
07-14-2016 14:08:46    1291        6610            1.112        53            42            1258    
07-14-2016 14:08:49    1291        6610            1.112        55            43            1253    
07-14-2016 14:08:52    1291        6610            1.112        55            44            1251    
07-14-2016 14:08:55    1291        6610            1.112        51            43            1254    
07-14-2016 14:08:58    1291        6610            1.112        58            45            1251    
07-14-2016 14:09:01    1291        6610            1.112        59            45            1252    
07-14-2016 14:09:04    1291        6610            1.112        61            46            1251    
07-14-2016 14:09:07    1291        6610            1.112        58            46            1252    
07-14-2016 14:09:10    1291        6610            1.112        61            46            1251    
07-14-2016 14:09:13    1291        6610            1.112        54            47            1250    
07-14-2016 14:09:16    1291        6610            1.112        56            46            1252    
07-14-2016 14:09:19    1291        6610            1.112        55            47            1250    
07-14-2016 14:09:22    1291        6610            1.112        55            47            1253    
07-14-2016 14:09:25    1291        6610            1.112        59            47            1252    
07-14-2016 14:09:28    1291        6610            1.112        59            48            1251    
07-14-2016 14:09:31    1291        6610            1.112        56            47            1252    
07-14-2016 14:09:34    1291        6610            1.112        60            48            1253    
07-14-2016 14:09:37    1291        6610            1.112        54            47            1253    
07-14-2016 14:09:40    1291        6610            1.112        53            48            1252    
07-14-2016 14:09:43    1291        6610            1.112        54            48            1252    
07-14-2016 14:09:46    1291        6610            1.112        52            48            1251    
07-14-2016 14:09:49    1291        6610            1.112        56            48            1253    
07-14-2016 14:09:52    1291        6610            1.112        55            48            1253    
07-14-2016 14:09:55    1291        6610            1.112        55            49            1252    
07-14-2016 14:09:58    1291        6610            1.112        48            48            1253    
07-14-2016 14:10:01    1291        6610            1.112        56            48            1253    
07-14-2016 14:10:04    1291        6610            1.112        57            49            1252    
07-14-2016 14:10:07    1291        6610            1.112        54            49            1254    
07-14-2016 14:10:10    1291        6610            1.112        52            49            1251    
07-14-2016 14:10:13    1291        6610            1.112        55            49            1251    
07-14-2016 14:10:16    1291        6610            1.112        55            49            1251    
07-14-2016 14:10:19    1291        6610            1.112        56            49            1250    
07-14-2016 14:10:22    1291        6610            1.112        51            49            1252    
07-14-2016 14:10:25    1291        6610            1.112        51            49            1255    
07-14-2016 14:10:28    1291        6610            1.112        55            50            1253    
07-14-2016 14:10:31    1291        6610            1.112        54            49            1254    
07-14-2016 14:10:34    1291        6610            1.112        52            49            1254    
07-14-2016 14:10:37    1291        6610            1.112        55            49            1250    
07-14-2016 14:10:40    1291        6610            1.112        55            50            1253    
07-14-2016 14:10:43    1291        6610            1.112        53            50            1251    
07-14-2016 14:10:46    1291        6610            1.112        52            50            1253    
07-14-2016 14:10:49    1291        6610            1.112        46            49            1254    
07-14-2016 14:10:52    1291        6610            1.112        56            50            1252    
07-14-2016 14:10:55    1291        6610            1.112        55            50            1252    
07-14-2016 14:10:58    1291        6610            1.112        58            50            1251    
07-14-2016 14:11:01    1291        6610            1.112        57            51            1249    
07-14-2016 14:11:04    1291        6610            1.112        62            51            1249    
07-14-2016 14:11:08    1291        6610            1.112        42            49            1259    
07-14-2016 14:11:11    823        1620            0.862        26            47            1275    
07-14-2016 14:11:14    912        6610            0.956        34            47            1268    
07-14-2016 14:11:17    912        6610            0.956        34            47            1269    
07-14-2016 14:11:20    1291        6610            1.112        57            48            1256    
07-14-2016 14:11:23    1291        6610            1.112        52            49            1252    
07-14-2016 14:11:26    1291        6610            1.112        55            49            1253    
07-14-2016 14:11:29    1291        6610            1.112        53            49            1251    
07-14-2016 14:11:32    1291        6610            1.112        57            50            1253    
07-14-2016 14:11:35    1291        6610            1.112        56            50            1250    
07-14-2016 14:11:38    1291        6610            1.112        58            50            1250    
07-14-2016 14:11:41    1291        6610            1.112        55            50            1254    
07-14-2016 14:11:44    1291        6610            1.112        51            49            1255    
07-14-2016 14:11:47    1291        6610            1.112        53            50            1252    
07-14-2016 14:11:50    1291        6610            1.112        57            50            1252    
07-14-2016 14:11:53    1291        6610            1.112        60            51            1251    
07-14-2016 14:11:56    1291        6610            1.112        51            50            1252    
07-14-2016 14:11:59    1291        6610            1.112        49            49            1253    
07-14-2016 14:12:02    1291        6610            1.112        53            50            1253    
07-14-2016 14:12:05    1291        6610            1.112        56            50            1254    
07-14-2016 14:12:08    1291        6610            1.112        45            49            1257    
07-14-2016 14:12:11    1152        6610            1.000        42            48            1256    
07-14-2016 14:12:14    1152        6610            1.000        39            48            1257    
07-14-2016 14:12:17    1152        6610            1.000        39            47            1259    
07-14-2016 14:12:20    1152        6610            1.000        41            47            1258    
07-14-2016 14:12:23    1253        6610            1.056        45            48            1258    
07-14-2016 14:12:26    1291        6610            1.112        54            49            1251    
07-14-2016 14:12:29    1291        6610            1.112        57            49            1251    
07-14-2016 14:12:32    1291        6610            1.112        58            49            1251    
07-14-2016 14:12:35    1291        6610            1.112        54            49            1254    
07-14-2016 14:12:38    1291        6610            1.112        54            50            1255    
07-14-2016 14:12:41    1291        6610            1.112        57            50            1252    
07-14-2016 14:12:44    1291        6610            1.112        51            49            1255    
07-14-2016 14:12:47    1291        6610            1.112        58            50            1252    
07-14-2016 14:12:50    1291        6610            1.112        60            50            1252    
07-14-2016 14:12:53    1291        6610            1.112        53            50            1251    
07-14-2016 14:12:56    1291        6610            1.112        53            50            1252    
07-14-2016 14:13:00    1291        6610            1.112        53            50            1255    
07-14-2016 14:13:02    1291        6610            1.112        51            50            1254    
07-14-2016 14:13:05    1291        6610            1.112        53            49            1254    
07-14-2016 14:13:08    1291        6610            1.112        55            50            1253    
07-14-2016 14:13:11    1291        6610            1.112        54            50            1252    
07-14-2016 14:13:14    1291        6610            1.112        40            48            1267    
07-14-2016 14:13:17    961        6610            0.956        32            47            1270    
07-14-2016 14:13:20    886        6610            0.956        32            46            1271    
07-14-2016 14:13:23    886        6610            0.956        32            46            1269    
07-14-2016 14:13:26    1291        6610            1.112        52            48            1253    
07-14-2016 14:13:29    1291        6610            1.112        52            48            1252    
07-14-2016 14:13:32    1291        6610            1.112        52            48            1252    
07-14-2016 14:13:35    1291        6610            1.112        51            49            1255    
07-14-2016 14:13:38    1291        6610            1.112        51            48            1255    
07-14-2016 14:13:41    1291        6610            1.112        54            49            1252    
07-14-2016 14:13:44    1291        6610            1.112        53            49            1253    
07-14-2016 14:13:47    1291        6610            1.112        53            49            1249    
07-14-2016 14:13:50    1291        6610            1.112        55            49            1251    
07-14-2016 14:13:53    1291        6610            1.112        52            50            1250    
07-14-2016 14:13:56    1291        6610            1.112        50            49            1253    
07-14-2016 14:14:00    1291        6610            1.112        47            48            1255    
07-14-2016 14:14:02    1291        6610            1.112        46            48            1254    
07-14-2016 14:14:05    1291        6610            1.112        49            48            1255    
07-14-2016 14:14:08    1291        6610            1.112        47            48            1257    
07-14-2016 14:14:11    1088        6610            0.956        37            47            1256    
07-14-2016 14:14:14    1088        6610            0.956        38            47            1259    
07-14-2016 14:14:17    1164        6610            1.000        44            47            1256    
07-14-2016 14:14:20    1291        6610            1.112        50            48            1251    
07-14-2016 14:14:23    1291        6610            1.112        54            48            1252    
07-14-2016 14:14:26    1291        6610            1.112        48            48            1254    
07-14-2016 14:14:29    1291        6610            1.112        52            48            1252    
07-14-2016 14:14:32    1291        6610            1.112        49            48            1254    
07-14-2016 14:14:35    1291        6610            1.112        50            48            1255    
07-14-2016 14:14:38    1291        6610            1.112        49            49            1250    
07-14-2016 14:14:41    1291        6610            1.112        54            49            1254    
07-14-2016 14:14:44    1291        6610            1.112        53            49            1253    
07-14-2016 14:14:47    1291        6610            1.112        57            49            1252    
07-14-2016 14:14:50    1291        6610            1.112        59            50            1253    
07-14-2016 14:14:53    1291        6610            1.112        53            49            1252    
07-14-2016 14:14:56    1291        6610            1.112        58            50            1252    
07-14-2016 14:15:00    1291        6610            1.112        52            49            1253    
07-14-2016 14:15:02    1291        6610            1.112        52            49            1254    
07-14-2016 14:15:05    1291        6610            1.112        57            50            1250    
07-14-2016 14:15:08    1291        6610            1.112        56            50            1250    
07-14-2016 14:15:11    1291        6610            1.112        54            49            1253    
07-14-2016 14:15:14    1291        6610            1.112        49            49            1252    
07-14-2016 14:15:17    1291        6610            1.112        52            49            1253    
07-14-2016 14:15:20    1291        6610            1.112        53            49            1255    
07-14-2016 14:15:23    1291        6610            1.112        53            50            1253    
07-14-2016 14:15:26    1291        6610            1.112        39            48            1265    
07-14-2016 14:15:29    1114        6610            0.975        34            47            1268    
07-14-2016 14:15:32    1063        6610            0.956        33            47            1270    
07-14-2016 14:15:35    1063        6610            0.956        32            46            1272    
07-14-2016 14:15:38    1291        6610            1.112        55            48            1255    
07-14-2016 14:15:41    1291        6610            1.112        54            48            1250    
07-14-2016 14:15:44    1291        6610            1.112        54            48            1253    
07-14-2016 14:15:47    1291        6610            1.112        55            49            1251    
07-14-2016 14:15:50    1291        6610            1.112        49            48            1256    
07-14-2016 14:15:54    1291        6610            1.112        50            48            1254    
07-14-2016 14:15:57    1291        6610            1.112        51            48            1255    
07-14-2016 14:16:00    1291        6610            1.112        46            48            1253    
07-14-2016 14:16:03    1291        6610            1.112        53            48            1255    
07-14-2016 14:16:06    1291        6610            1.112        48            48            1256    
07-14-2016 14:16:09    1291        6610            1.112        55            49            1254    
07-14-2016 14:16:12    1291        6610            1.112        56            49            1252    
07-14-2016 14:16:15    1291        6610            1.112        59            50            1252    
07-14-2016 14:16:18    1291        6610            1.112        56            49            1251    
07-14-2016 14:16:21    1291        6610            1.112        59            50            1252    
07-14-2016 14:16:24    1291        6610            1.112        74            52            1248    
07-14-2016 14:16:27    1291        6610            1.112        52            50            1252    
07-14-2016 14:16:30    1291        6610            1.112        60            52            1252    
07-14-2016 14:16:33    1291        6610            1.112        54            50            1251    
07-14-2016 14:16:36    1291        6610            1.112        58            51            1253    
07-14-2016 14:16:39    1291        6610            1.112        52            50            1254    
07-14-2016 14:16:42    1291        6610            1.112        53            50            1253    
07-14-2016 14:16:45    1291        6610            1.112        51            51            1252    
07-14-2016 14:16:48    1291        6610            1.112        53            50            1254    
07-14-2016 14:16:51    1291        6610            1.112        58            51            1253    
07-14-2016 14:16:54    1291        6610            1.112        51            50            1254    
07-14-2016 14:16:57    1291        6610            1.112        55            51            1254    
07-14-2016 14:17:00    1291        6610            1.112        54            50            1254    
07-14-2016 14:17:03    1291        6610            1.112        56            51            1252    
07-14-2016 14:17:06    1291        6610            1.112        53            50            1253    
07-14-2016 14:17:09    1291        6610            1.112        59            51            1251    
07-14-2016 14:17:12    1291        6610            1.112        53            51            1254    
07-14-2016 14:17:15    1291        6610            1.112        56            51            1251    
07-14-2016 14:17:18    1291        6610            1.112        52            51            1253    
07-14-2016 14:17:21    1291        6610            1.112        54            51            1253    
07-14-2016 14:17:24    1291        6610            1.112        51            50            1253    
07-14-2016 14:17:27    1291        6610            1.112        46            50            1254    
07-14-2016 14:17:30    1291        6610            1.112        52            50            1253    
07-14-2016 14:17:33    1291        6610            1.112        40            49            1258    
07-14-2016 14:17:36    899        6610            0.956        34            48            1274    
07-14-2016 14:17:39    899        6610            0.956        32            47            1271    
07-14-2016 14:17:42    899        6610            0.956        33            47            1268    
07-14-2016 14:17:45    899        6610            0.956        41            47            1266    
07-14-2016 14:17:48    1291        6610            1.112        55            49            1255    
07-14-2016 14:17:51    1291        6610            1.112        55            49            1254    
07-14-2016 14:17:54    1291        6610            1.112        56            50            1254    
07-14-2016 14:17:57    1291        6610            1.112        57            50            1255    
07-14-2016 14:18:00    1291        6610            1.112        56            50            1254    
07-14-2016 14:18:03    1291        6610            1.112        51            50            1254    
07-14-2016 14:18:06    1291        6610            1.112        53            50            1253    
07-14-2016 14:18:09    1291        6610            1.112        51            49            1254    
07-14-2016 14:18:12    1291        6610            1.112        50            49            1255    
07-14-2016 14:18:15    1291        6610            1.112        60            51            1253    
07-14-2016 14:18:18    1291        6610            1.112        55            50            1254    
07-14-2016 14:18:21    1291        6610            1.112        45            49            1255    
07-14-2016 14:18:24    1291        6610            1.112        47            49            1257    
07-14-2016 14:18:27    1202        6610            1.018        43            48            1261    
07-14-2016 14:18:30    1291        6610            1.112        50            49            1254    
07-14-2016 14:18:33    1291        6610            1.112        48            49            1257    
07-14-2016 14:18:36    1291        6610            1.112        49            49            1253    
07-14-2016 14:18:39    1291        6610            1.112        47            48            1256    
07-14-2016 14:18:42    1291        6610            1.112        47            48            1257    
07-14-2016 14:18:45    1291        6610            1.112        50            49            1254    
07-14-2016 14:18:48    1291        6610            1.112        55            49            1253    
07-14-2016 14:18:51    1291        6610            1.112        53            49            1252    
07-14-2016 14:18:54    1291        6610            1.112        50            49            1256    
07-14-2016 14:18:57    1291        6610            1.112        53            50            1255    
07-14-2016 14:19:00    1291        6610            1.112        55            49            1255    
07-14-2016 14:19:03    1291        6610            1.112        56            50            1252    
07-14-2016 14:19:06    1291        6610            1.112        55            50            1253    
07-14-2016 14:19:09    1291        6610            1.112        52            50            1254    
07-14-2016 14:19:12    1291        6610            1.112        53            50            1255    
07-14-2016 14:19:15    1291        6610            1.112        56            50            1252    
07-14-2016 14:19:18    1291        6610            1.112        54            50            1251    
07-14-2016 14:19:21    1291        6610            1.112        52            50            1255    
07-14-2016 14:19:24    1291        6610            1.112        41            49            1262    
07-14-2016 14:19:27    912        6610            0.956        33            47            1268    
07-14-2016 14:19:30    671        1620            0.806        19            46            1278    
07-14-2016 14:19:33    937        6610            0.956        32            46            1270    
07-14-2016 14:19:36    1063        6610            0.956        45            47            1263    
07-14-2016 14:19:39    1291        6610            1.112        47            48            1254    
07-14-2016 14:19:42    1291        6610            1.112        52            48            1253    
07-14-2016 14:19:45    1291        6610            1.112        47            48            1253    
07-14-2016 14:19:48    1291        6610            1.112        50            48            1254    
07-14-2016 14:19:51    1291        6610            1.112        51            48            1257    
07-14-2016 14:19:54    1291        6610            1.112        51            48            1254    
07-14-2016 14:19:57    1291        6610            1.112        52            48            1254    
07-14-2016 14:20:00    1291        6610            1.112        51            48            1256    
07-14-2016 14:20:03    1291        6610            1.112        52            49            1255    
07-14-2016 14:20:06    1291        6610            1.112        54            49            1254    
07-14-2016 14:20:09    1291        6610            1.112        55            49            1253    
07-14-2016 14:20:12    1291        6610            1.112        52            49            1255    
07-14-2016 14:20:15    1291        6610            1.112        55            49            1253    
07-14-2016 14:20:18    1291        6610            1.112        54            49            1251    
07-14-2016 14:20:21    1291        6610            1.112        54            49            1251    
07-14-2016 14:20:24    1291        6610            1.112        55            49            1252    
07-14-2016 14:20:27    1291        6610            1.112        52            49            1253    
07-14-2016 14:20:31    1291        6610            1.112        46            48            1254    
07-14-2016 14:20:34    1139        6610            0.993        39            47            1257    
07-14-2016 14:20:37    1227        6610            1.043        43            47            1257    
07-14-2016 14:20:40    1227        6610            1.043        44            47            1258    
07-14-2016 14:20:43    1227        6610            1.043        43            47            1259    
07-14-2016 14:20:46    1227        6610            1.043        43            47            1258    
07-14-2016 14:20:49    1291        6610            1.112        49            47            1256    
07-14-2016 14:20:52    1291        6610            1.112        52            48            1253    
07-14-2016 14:20:55    1291        6610            1.112        52            48            1253    
07-14-2016 14:20:58    1291        6610            1.112        52            48            1254    
07-14-2016 14:21:01    1291        6610            1.112        40            47            1267    
07-14-2016 14:21:04    1291        6610            1.112        42            46            1270    
07-14-2016 14:21:07    1291        6610            1.112        40            46            1269    
07-14-2016 14:21:10    1291        6610            1.112        41            46            1270    
07-14-2016 14:21:13    1291        6610            1.112        57            48            1253    
07-14-2016 14:21:16    1291        6610            1.112        57            48            1254    
07-14-2016 14:21:19    1291        6610            1.112        54            48            1253    
07-14-2016 14:21:22    1291        6610            1.112        50            47            1255    
07-14-2016 14:21:25    1291        6610            1.112        46            47            1256    
07-14-2016 14:21:28    1291        6610            1.112        48            47            1255    
07-14-2016 14:21:31    1139        6610            0.993        39            46            1257    
07-14-2016 14:21:34    1139        6610            0.993        41            46            1255    
07-14-2016 14:21:37    1050        6610            0.956        39            45            1259    
07-14-2016 14:21:40    1291        6610            1.112        49            47            1255    
07-14-2016 14:21:43    1291        6610            1.112        49            47            1255    
07-14-2016 14:21:46    1291        6610            1.112        47            46            1258    
07-14-2016 14:21:49    1291        6610            1.112        49            47            1253    
07-14-2016 14:21:52    1291        6610            1.112        48            47            1256    
07-14-2016 14:21:55    1291        6610            1.112        51            47            1253    
07-14-2016 14:21:58    1291        6610            1.112        49            47            1255    
07-14-2016 14:22:01    1291        6610            1.112        50            47            1253    
07-14-2016 14:22:04    1291        6610            1.112        48            47            1255    
07-14-2016 14:22:07    1291        6610            1.112        44            46            1257    
07-14-2016 14:22:10    1291        6610            1.112        44            46            1256    
07-14-2016 14:22:13    1291        6610            1.112        56            48            1253    
07-14-2016 14:22:16    1291        6610            1.112        53            48            1252    
07-14-2016 14:22:19    1291        6610            1.112        52            48            1254    
07-14-2016 14:22:22    1291        6610            1.112        57            48            1255    
07-14-2016 14:22:25    1291        6610            1.112        56            48            1253    
07-14-2016 14:22:28    1291        6610            1.112        55            48            1252    
07-14-2016 14:22:31    1291        6610            1.112        51            48            1254    
07-14-2016 14:22:34    1291        6610            1.112        53            48            1255    
07-14-2016 14:22:37    1291        6610            1.112        57            49            1251    
07-14-2016 14:22:40    1291        6610            1.112        53            48            1251    
07-14-2016 14:22:43    1291        6610            1.112        52            48            1254    
07-14-2016 14:22:46    1291        6610            1.112        53            48            1252    
07-14-2016 14:22:49    1291        6610            1.112        58            49            1252    
07-14-2016 14:22:52    1291        6610            1.112        40            47            1265    
07-14-2016 14:22:55    987        6610            0.956        34            46            1273    
07-14-2016 14:22:58    975        6610            0.956        33            45            1270    
07-14-2016 14:23:01    975        6610            0.956        35            45            1271    
07-14-2016 14:23:04    1291        6610            1.112        58            48            1255    
07-14-2016 14:23:07    1291        6610            1.112        62            49            1252    
07-14-2016 14:23:10    1291        6610            1.112        64            49            1244    
07-14-2016 14:23:13    1291        6610            1.112        63            50            1246    
07-14-2016 14:23:16    1291        6610            1.112        64            50            1251    
07-14-2016 14:23:19    1291        6610            1.112        61            50            1251    
07-14-2016 14:23:22    1291        6610            1.112        61            50            1253    
07-14-2016 14:23:25    1291        6610            1.112        62            50            1253    
07-14-2016 14:23:28    1291        6610            1.112        54            49            1254    
07-14-2016 14:23:31    1291        6610            1.112        51            49            1257    
07-14-2016 14:23:34    1291        6610            1.112        45            48            1256    
07-14-2016 14:23:37    1291        6610            1.112        47            48            1256    
07-14-2016 14:23:40    1291        6610            1.112        48            48            1254    
07-14-2016 14:23:43    1291        6610            1.112        46            48            1257    
07-14-2016 14:23:46    1114        6610            0.975        41            47            1257    
07-14-2016 14:23:49    1114        6610            0.975        40            47            1259    
07-14-2016 14:23:52    1189        6610            1.018        43            47            1258    
07-14-2016 14:23:55    1189        6610            1.018        44            47            1256    
07-14-2016 14:23:58    1291        6610            1.112        54            48            1254    
07-14-2016 14:24:01    1291        6610            1.112        50            48            1254    
07-14-2016 14:24:04    1291        6610            1.112        52            48            1253    
07-14-2016 14:24:07    1291        6610            1.112        57            48            1250    
07-14-2016 14:24:10    1291        6610            1.112        56            49            1250    
07-14-2016 14:24:13    1291        6610            1.112        58            49            1253    
07-14-2016 14:24:16    1291        6610            1.112        52            49            1253    
07-14-2016 14:24:19    1291        6610            1.112        55            49            1251    
07-14-2016 14:24:22    1291        6610            1.112        50            48            1252    
07-14-2016 14:24:25    1291        6610            1.112        55            49            1255    
07-14-2016 14:24:28    1291        6610            1.112        57            49            1255    
07-14-2016 14:24:31    1291        6610            1.112        59            49            1252    
07-14-2016 14:24:34    1291        6610            1.112        47            48            1253    
07-14-2016 14:24:37    1291        6610            1.112        46            48            1255    
07-14-2016 14:24:40    1291        6610            1.112        49            48            1253    
07-14-2016 14:24:43    1291        6610            1.112        50            48            1255    
07-14-2016 14:24:46    1291        6610            1.112        52            48            1257    
07-14-2016 14:24:49    1291        6610            1.112        46            48            1256    
07-14-2016 14:24:52    1291        6610            1.112        49            48            1255    
07-14-2016 14:24:55    1291        6610            1.112        44            48            1255    
07-14-2016 14:24:58    1114        6610            0.975        33            46            1270    
07-14-2016 14:25:02    747        1620            0.837        21            45            1275    
07-14-2016 14:25:05    873        6610            0.956        32            44            1271    
07-14-2016 14:25:08    873        6610            0.956        32            44            1269    
07-14-2016 14:25:11    1291        6610            1.112        58            47            1253    
07-14-2016 14:25:14    1291        6610            1.112        52            47            1252    
07-14-2016 14:25:17    1291        6610            1.112        53            47            1251    
07-14-2016 14:25:20    1291        6610            1.112        54            47            1255    
07-14-2016 14:25:23    1291        6610            1.112        57            48            1253    
07-14-2016 14:25:26    1291        6610            1.112        55            48            1254    
07-14-2016 14:25:29    1291        6610            1.112        53            47            1253    
07-14-2016 14:25:32    1291        6610            1.112        54            48            1254    
07-14-2016 14:25:35    1291        6610            1.112        55            48            1254    
07-14-2016 14:25:38    1291        6610            1.112        52            48            1251    
07-14-2016 14:25:41    1291        6610            1.112        55            48            1252    
07-14-2016 14:25:44    1291        6610            1.112        58            48            1251    
07-14-2016 14:25:47    1291        6610            1.112        52            48            1251    
07-14-2016 14:25:50    1291        6610            1.112        52            48            1253    
07-14-2016 14:25:53    1291        6610            1.112        56            48            1253    
07-14-2016 14:25:56    1291        6610            1.112        56            48            1252    
07-14-2016 14:25:59    1291        6610            1.112        49            48            1254    
07-14-2016 14:26:02    1291        6610            1.112        51            48            1256    
07-14-2016 14:26:05    1291        6610            1.112        58            48            1252    
07-14-2016 14:26:08    1291        6610            1.112        50            48            1254    
07-14-2016 14:26:11    1291        6610            1.112        57            49            1251    
07-14-2016 14:26:14    1291        6610            1.112        56            49            1250    
07-14-2016 14:26:17    1291        6610            1.112        60            49            1251    
07-14-2016 14:26:20    1291        6610            1.112        50            48            1256    
07-14-2016 14:26:23    1291        6610            1.112        55            49            1253    
07-14-2016 14:26:26    1291        6610            1.112        55            49            1253    
07-14-2016 14:26:29    1291        6610            1.112        53            48            1252    
07-14-2016 14:26:32    1291        6610            1.112        53            48            1253    
07-14-2016 14:26:35    1291        6610            1.112        51            48            1253    
07-14-2016 14:26:38    1291        6610            1.112        48            48            1253    
07-14-2016 14:26:41    1291        6610            1.112        48            48            1254    
07-14-2016 14:26:44    1291        6610            1.112        52            49            1251    
07-14-2016 14:26:47    1291        6610            1.112        51            49            1252    
07-14-2016 14:26:50    1291        6610            1.112        53            49            1254    
07-14-2016 14:26:53    1291        6610            1.112        61            50            1254    
07-14-2016 14:26:56    1291        6610            1.112        64            50            1248    
07-14-2016 14:27:00    1291        6610            1.112        62            51            1250    
07-14-2016 14:27:02    1291        6610            1.112        43            49            1262    
07-14-2016 14:27:05    861        6610            0.956        34            46            1271    
07-14-2016 14:27:08    1063        6610            0.956        34            46            1269    
07-14-2016 14:27:11    961        6610            0.956        35            46            1268    
07-14-2016 14:27:14    1291        6610            1.112        54            47            1256    
07-14-2016 14:27:17    1291        6610            1.112        54            48            1256    
07-14-2016 14:27:20    1291        6610            1.112        50            48            1256    
07-14-2016 14:27:23    1291        6610            1.112        47            47            1255    
07-14-2016 14:27:26    1291        6610            1.112        49            47            1254    
07-14-2016 14:27:29    1291        6610            1.112        45            47            1256    
07-14-2016 14:27:32    1291        6610            1.112        47            47            1254    
07-14-2016 14:27:35    1291        6610            1.112        46            47            1254    
07-14-2016 14:27:38    1291        6610            1.112        47            47            1255    
07-14-2016 14:27:41    1291        6610            1.112        51            47            1253    
07-14-2016 14:27:44    1291        6610            1.112        49            47            1254    
07-14-2016 14:27:47    1291        6610            1.112        53            48            1251    
07-14-2016 14:27:50    1291        6610            1.112        49            47            1253    
07-14-2016 14:27:53    1291        6610            1.112        40            47            1256    
07-14-2016 14:27:56    1291        6610            1.112        46            47            1257    
07-14-2016 14:28:00    1291        6610            1.112        52            47            1253    
07-14-2016 14:28:02    1291        6610            1.112        50            47            1253    
07-14-2016 14:28:05    1291        6610            1.112        52            47            1253    
07-14-2016 14:28:08    1291        6610            1.112        56            48            1252    
07-14-2016 14:28:11    1291        6610            1.112        52            48            1252    
07-14-2016 14:28:14    1291        6610            1.112        53            48            1252    
07-14-2016 14:28:17    1291        6610            1.112        53            48            1253    
07-14-2016 14:28:20    1291        6610            1.112        58            48            1252    
07-14-2016 14:28:23    1291        6610            1.112        50            48            1253    
07-14-2016 14:28:26    1291        6610            1.112        50            48            1254    
07-14-2016 14:28:29    1291        6610            1.112        48            47            1256    
07-14-2016 14:28:32    1291        6610            1.112        45            47            1256    
07-14-2016 14:28:35    1139        6610            0.993        42            46            1257    
07-14-2016 14:28:38    1139        6610            0.993        40            46            1256    
07-14-2016 14:28:41    987        6610            0.956        37            45            1259    
07-14-2016 14:28:44    987        6610            0.956        35            45            1258    
07-14-2016 14:28:47    1291        6610            1.112        50            46            1254    
07-14-2016 14:28:50    1291        6610            1.112        47            46            1254    
07-14-2016 14:28:53    1291        6610            1.112        47            46            1252    
07-14-2016 14:28:56    1291        6610            1.112        47            46            1254    
07-14-2016 14:29:00    1291        6610            1.112        50            47            1253    
07-14-2016 14:29:02    1291        6610            1.112        61            48            1250    
07-14-2016 14:29:05    1291        6610            1.112        62            48            1252    
07-14-2016 14:29:08    1291        6610            1.112        55            48            1251    
07-14-2016 14:29:11    1291        6610            1.112        45            47            1254    
07-14-2016 14:29:14    1291        6610            1.112        49            47            1252    
07-14-2016 14:29:17    1291        6610            1.112        47            47            1256    
07-14-2016 14:29:20    1291        6610            1.112        47            47            1254    
07-14-2016 14:29:23    1291        6610            1.112        50            47            1254    
07-14-2016 14:29:26    1291        6610            1.112        55            48            1252    
07-14-2016 14:29:29    1291        6610            1.112        52            48            1252    
07-14-2016 14:29:32    1291        6610            1.112        55            48            1250    
07-14-2016 14:29:35    1291        6610            1.112        55            48            1252    
07-14-2016 14:29:38    1291        6610            1.112        52            48            1251    
07-14-2016 14:29:41    1291        6610            1.112        51            48            1251    
07-14-2016 14:29:44    1291        6610            1.112        48            47            1253    
07-14-2016 14:29:48    759        1620            0.837        27            46            1266    
07-14-2016 14:29:51    797        1620            0.850        21            44            1278    
07-14-2016 14:29:54    797        1620            0.850        21            43            1277    
07-14-2016 14:29:57    797        1620            0.850        21            43            1278    
07-14-2016 14:30:00    1063        6610            0.956        36            44            1259    
07-14-2016 14:30:03    1063        6610            0.956        39            44            1258    
07-14-2016 14:30:06    1063        6610            0.956        39            44            1256    
07-14-2016 14:30:09    1101        6610            0.968        38            44            1258    
07-14-2016 14:30:12    1101        6610            0.968        40            44            1258    
07-14-2016 14:30:15    1139        6610            0.993        41            44            1257    
07-14-2016 14:30:18    1240        6610            1.043        42            44            1256    
07-14-2016 14:30:21    1278        6610            1.112        58            45            1253    
07-14-2016 14:30:24    1291        6610            1.112        50            45            1253    
07-14-2016 14:30:27    1291        6610            1.112        51            45            1251    
07-14-2016 14:30:30    1291        6610            1.112        53            46            1255    
07-14-2016 14:30:33    1291        6610            1.112        54            46            1252    
07-14-2016 14:30:36    1291        6610            1.112        55            46            1253    
07-14-2016 14:30:39    1291        6610            1.112        52            46            1254    
07-14-2016 14:30:42    1291        6610            1.112        50            46            1254    
07-14-2016 14:30:45    1291        6610            1.112        51            47            1253    
07-14-2016 14:30:48    1291        6610            1.112        51            46            1252    
07-14-2016 14:30:51    1291        6610            1.112        49            46            1252    
07-14-2016 14:30:54    1291        6610            1.112        50            47            1250    
07-14-2016 14:30:57    1114        6610            0.975        36            45            1255    
07-14-2016 14:31:00    1278        6610            1.112        50            46            1254    
07-14-2016 14:31:03    1291        6610            1.112        48            46            1254    
07-14-2016 14:31:06    1291        6610            1.112        45            46            1254    
07-14-2016 14:31:09    1291        6610            1.112        59            47            1250    
07-14-2016 14:31:12    1291        6610            1.112        53            47            1249    
07-14-2016 14:31:15    1291        6610            1.112        48            46            1255    
07-14-2016 14:31:18    1291        6610            1.112        48            46            1253    
07-14-2016 14:31:21    1291        6610            1.112        71            49            1249    
07-14-2016 14:31:24    1291        6610            1.112        48            47            1254    
07-14-2016 14:31:27    1291        6610            1.112        53            47            1253    
07-14-2016 14:31:30    1291        6610            1.112        56            48            1253    
07-14-2016 14:31:33    1291        6610            1.112        50            47            1251    
07-14-2016 14:31:36    1291        6610            1.112        49            47            1254    
07-14-2016 14:31:39    1291        6610            1.112        50            47            1254    
07-14-2016 14:31:42    1291        6610            1.112        54            48            1251    
07-14-2016 14:31:45    1291        6610            1.112        53            47            1253    
07-14-2016 14:31:48    1291        6610            1.112        53            47            1253    
07-14-2016 14:31:51    1291        6610            1.112        55            48            1253    
07-14-2016 14:31:54    1291        6610            1.112        52            48            1252    
07-14-2016 14:31:57    1291        6610            1.112        57            48            1252    
07-14-2016 14:32:00    1291        6610            1.112        57            48            1249    
07-14-2016 14:32:03    1291        6610            1.112        55            48            1254    
07-14-2016 14:32:06    1291        6610            1.112        50            48            1253    
07-14-2016 14:32:09    1291        6610            1.112        46            47            1253    
07-14-2016 14:32:12    1291        6610            1.112        47            47            1252    
07-14-2016 14:32:15    1139        6610            0.993        41            47            1253    
07-14-2016 14:32:18    1202        6610            1.018        44            46            1257    
07-14-2016 14:32:21    1240        6610            1.043        41            46            1255    
07-14-2016 14:32:24    1240        6610            1.043        43            46            1254    
07-14-2016 14:32:27    1240        6610            1.043        43            46            1256    
07-14-2016 14:32:30    1240        6610            1.043        44            46            1255    
07-14-2016 14:32:33    1291        6610            1.112        50            47            1251    
07-14-2016 14:32:36    1291        6610            1.112        47            46            1255    
07-14-2016 14:32:39    1291        6610            1.112        39            45            1266    
07-14-2016 14:32:42    1291        6610            1.112        42            45            1266    
07-14-2016 14:32:45    671        1620            0.806        19            44            1273    
07-14-2016 14:32:48    912        6610            0.956        32            44            1269    
07-14-2016 14:32:51    1291        6610            1.112        58            46            1253    
07-14-2016 14:32:54    1291        6610            1.112        54            46            1251    
07-14-2016 14:32:57    1291        6610            1.112        52            46            1253    
07-14-2016 14:33:00    1291        6610            1.112        49            46            1252    
07-14-2016 14:33:03    1291        6610            1.112        51            46            1253    
07-14-2016 14:33:06    1291        6610            1.112        48            46            1253    
07-14-2016 14:33:09    1291        6610            1.112        51            46            1251    
07-14-2016 14:33:12    1291        6610            1.112        45            46            1255    
07-14-2016 14:33:15    1114        6610            0.975        36            45            1255    
07-14-2016 14:33:18    1177        6610            1.012        40            44            1255    
07-14-2016 14:33:21    1177        6610            1.012        41            44            1254    
07-14-2016 14:33:24    1177        6610            1.012        41            45            1257    
07-14-2016 14:33:27    1291        6610            1.112        54            46            1254    
07-14-2016 14:33:30    1291        6610            1.112        48            46            1252    
07-14-2016 14:33:33    1291        6610            1.112        58            47            1248    
07-14-2016 14:33:36    1291        6610            1.112        55            47            1254    
07-14-2016 14:33:39    1291        6610            1.112        54            47            1250    
07-14-2016 14:33:42    1291        6610            1.112        55            47            1252    
07-14-2016 14:33:45    1291        6610            1.112        54            47            1251    
07-14-2016 14:33:48    1291        6610            1.112        49            46            1253    
07-14-2016 14:33:51    1291        6610            1.112        49            47            1253    
07-14-2016 14:33:54    1291        6610            1.112        44            46            1251    
07-14-2016 14:33:57    1291        6610            1.112        45            46            1255    
07-14-2016 14:34:00    1291        6610            1.112        48            46            1254    
07-14-2016 14:34:03    1177        6610            1.012        41            45            1256    
07-14-2016 14:34:06    1177        6610            1.012        43            45            1256    
07-14-2016 14:34:09    1291        6610            1.112        49            46            1252    
07-14-2016 14:34:12    1291        6610            1.112        48            46            1254    
07-14-2016 14:34:15    1291        6610            1.112        47            46            1253    
07-14-2016 14:34:18    1291        6610            1.112        50            46            1253    
07-14-2016 14:34:21    1291        6610            1.112        56            47            1253    

 

Gráfico de Uso do OC GURU durante o jogo:

ss+(2016-07-14+at+06.22.48).png

 

Temps durante o jogo:

ss+(2016-07-14+at+07.39.33).png

 

 

Fico no aguardo de uma resposta, obrigado, abraço!

Editado por Foxwalt
Melhorar título.

Compartilhar este post


Link para o post
Compartilhar em outros sites

mas eu utilizei 2 placas diferentes com a mesma versão, e em uma delas não tive este problema.

Compartilhar este post


Link para o post
Compartilhar em outros sites

@joaobez Seja bem-vindo ao Fórum. :)

 

O problema aí muito dificilmente é a placa de vídeo. O primeiro passo é trocar essa bomba por uma fonte de verdade. Para a sua configuração, pode pegar uma PCYes! Electro 430W, Corsair CX 430W ou XFX XT 400W. Se estiver usando estabilizador ou nobreak vagabundo, deve jogar ele fora e colocar um bom filtro de linha (recomendo Clamper).

 

Sua placa-mãe tem chipset 760G. Esse chipset antigo, que foi adaptado da época dos Phenom, é conhecido por gerar alguns problemas de perda de desempenho em processadores FX. Além de sofrer com a placa-mãe ruim, seu processador tem alguma perda de desempenho por estar sendo usado com memórias de frequência abaixo do padrão dos FX, que é de 1866MHz. Somado a isso, vem o fato de processadores AMD FX não serem boas escolhas para o CS:GO, que é um jogo muito dependente da performance por núcleo, onde esses processadores pecam.

  • Curtir 1

Compartilhar este post


Link para o post
Compartilhar em outros sites

Obrigado pela resposta @Foxwalt Teria como saber especificamente o que poderia estar ocasionando este problema? Ou então por onde devo começar? Pois não tenho como gastar quase 3.000 reais em peças neste momento. Lembrando que com outra placa de vídeo nesta mesma máquina, obtive um FPS constante, o problema só acontece quando eu uso a nova placa.

Editado por joaobez

Compartilhar este post


Link para o post
Compartilhar em outros sites

@joaobez A outra placa é muito mais fraca. Não vai pedir tanto dos outros componentes quanto a nova.

 

O primeiro passo é a troca da fonte. Essa daí recomendo trocar por questões de segurança, já que pode ser que não tenha relação com o problema. Você vai ter que gastar aqui e não tem muito o que fazer.

 

Como mencionei anteriormente, já vi muitos casos de pessoas com problemas semelhantes ao seu e a culpada era a placa-mãe. Nós que ficamos mais tempo no Fórum vemos isso com frequência. O que recomendo que você faça agora é que observe o uso de todos os núcleos do seu processador durante o jogo. Observe o comportamento contínuo dele e no momento em que ocorrem os drops. O MSI Afterburner pode te ajudar nisso.

 

Você pode tentar outras coisas também, como rodar um MemTest na memória ram e fazer uma verificação de erros no disco rígido.

 

Não quero te desanimar, mas pode ser que você tenha que aprender a conviver com esses drops.

Compartilhar este post


Link para o post
Compartilhar em outros sites

Crie uma conta ou entre para comentar

Você precisar ser um membro para fazer um comentário

Criar uma conta

Crie uma nova conta em nossa comunidade. É fácil!

Crie uma nova conta

Entrar

Já tem uma conta? Faça o login.

Entrar agora
Entre para seguir isso  





Sobre o Clube do Hardware

No ar desde 1996, o Clube do Hardware é uma das maiores, mais antigas e mais respeitadas publicações sobre tecnologia do Brasil. Leia mais

Direitos autorais

Não permitimos a cópia ou reprodução do conteúdo do nosso site, fórum, newsletters e redes sociais, mesmo citando-se a fonte. Leia mais

×